Snag Island, Washington
Current Conditions -  °F | °C
As of 3:34 AM on Tuesday 21 Oct 2014 (Local Time) from KTCM Reporting Station
Light Rain Light Rain  
Wind Chill: 52°   Ceiling: 5500
Heat Index: 52°   Visibility: 10mi
Dew Point: 52°   Wind: 6mph
Humidity: 100%   Direction: 170°S
Pressure: 29.83"   Gusts: NA
Location:  47.1874°N, 122.164°W
Report Text: KTCM 211034Z AUTO 17005KT 10SM -RA BKN055 OVC070 11/11 A2983 RMK AO2 RAB1008E1028 $
Loading
Personal Weather Stations






























Interactive Weather Map
Tropical Storm Tracking
New forecast layout! Learn more

10-Day Weather Forecast

Advertisements
Track Severe Weather on mobile